sensor_id;sensor_type;location;lat;lon;timestamp;P1;durP1;ratioP1;P2;durP2;ratioP2
18752;SDS011;9505;50.882;5.350;2022-12-18T00:00:45;52.40;;;12.17;;
18752;SDS011;9505;50.882;5.350;2022-12-18T00:03:14;56.67;;;16.87;;
18752;SDS011;9505;50.882;5.350;2022-12-18T00:05:47;36.43;;;11.23;;
18752;SDS011;9505;50.882;5.350;2022-12-18T00:08:14;67.03;;;17.73;;
18752;SDS011;9505;50.882;5.350;2022-12-18T00:10:39;64.33;;;15.60;;
18752;SDS011;9505;50.882;5.350;2022-12-18T00:13:05;56.00;;;14.00;;
18752;SDS011;9505;50.882;5.350;2022-12-18T00:15:33;58.60;;;15.27;;
18752;SDS011;9505;50.882;5.350;2022-12-18T00:17:59;62.87;;;14.67;;
18752;SDS011;9505;50.882;5.350;2022-12-18T00:20:24;49.87;;;12.93;;
18752;SDS011;9505;50.882;5.350;2022-12-18T00:22:51;49.37;;;13.73;;
18752;SDS011;9505;50.882;5.350;2022-12-18T00:25:17;41.97;;;13.23;;
18752;SDS011;9505;50.882;5.350;2022-12-18T00:27:43;49.50;;;13.50;;
18752;SDS011;9505;50.882;5.350;2022-12-18T00:30:08;49.80;;;15.00;;
18752;SDS011;9505;50.882;5.350;2022-12-18T00:32:34;48.87;;;16.53;;
18752;SDS011;9505;50.882;5.350;2022-12-18T00:35:00;53.53;;;15.20;;
18752;SDS011;9505;50.882;5.350;2022-12-18T00:37:26;55.80;;;12.97;;
18752;SDS011;9505;50.882;5.350;2022-12-18T00:39:51;75.60;;;18.40;;
18752;SDS011;9505;50.882;5.350;2022-12-18T00:42:17;59.57;;;15.33;;
18752;SDS011;9505;50.882;5.350;2022-12-18T00:45:01;53.47;;;13.83;;
18752;SDS011;9505;50.882;5.350;2022-12-18T00:47:26;64.43;;;15.10;;
18752;SDS011;9505;50.882;5.350;2022-12-18T00:49:52;50.37;;;13.97;;
18752;SDS011;9505;50.882;5.350;2022-12-18T00:52:17;57.53;;;14.87;;
18752;SDS011;9505;50.882;5.350;2022-12-18T00:54:43;60.27;;;16.37;;
18752;SDS011;9505;50.882;5.350;2022-12-18T00:57:09;70.17;;;15.73;;
18752;SDS011;9505;50.882;5.350;2022-12-18T00:59:34;40.57;;;13.70;;
18752;SDS011;9505;50.882;5.350;2022-12-18T01:02:00;55.43;;;15.10;;
18752;SDS011;9505;50.882;5.350;2022-12-18T01:04:25;52.70;;;12.40;;
18752;SDS011;9505;50.882;5.350;2022-12-18T01:06:51;45.80;;;11.00;;
18752;SDS011;9505;50.882;5.350;2022-12-18T01:09:16;65.07;;;13.47;;
18752;SDS011;9505;50.882;5.350;2022-12-18T01:11:42;53.30;;;15.07;;
18752;SDS011;9505;50.882;5.350;2022-12-18T01:14:08;63.10;;;13.97;;
18752;SDS011;9505;50.882;5.350;2022-12-18T01:16:33;53.10;;;14.97;;
18752;SDS011;9505;50.882;5.350;2022-12-18T01:18:59;38.30;;;12.27;;
18752;SDS011;9505;50.882;5.350;2022-12-18T01:21:24;44.63;;;15.77;;
18752;SDS011;9505;50.882;5.350;2022-12-18T01:23:51;51.20;;;14.50;;
18752;SDS011;9505;50.882;5.350;2022-12-18T01:26:18;55.80;;;13.10;;
18752;SDS011;9505;50.882;5.350;2022-12-18T01:28:44;45.40;;;15.60;;
18752;SDS011;9505;50.882;5.350;2022-12-18T01:33:39;50.00;;;13.37;;
18752;SDS011;9505;50.882;5.350;2022-12-18T01:36:05;49.03;;;12.77;;
18752;SDS011;9505;50.882;5.350;2022-12-18T01:38:31;53.63;;;17.37;;
18752;SDS011;9505;50.882;5.350;2022-12-18T01:41:00;52.87;;;14.50;;
18752;SDS011;9505;50.882;5.350;2022-12-18T01:46:25;65.50;;;14.03;;
18752;SDS011;9505;50.882;5.350;2022-12-18T01:48:59;41.77;;;12.73;;
18752;SDS011;9505;50.882;5.350;2022-12-18T01:51:26;65.73;;;15.33;;
18752;SDS011;9505;50.882;5.350;2022-12-18T01:53:54;65.53;;;14.03;;
18752;SDS011;9505;50.882;5.350;2022-12-18T01:56:20;46.87;;;12.73;;
18752;SDS011;9505;50.882;5.350;2022-12-18T01:58:54;54.87;;;14.43;;
18752;SDS011;9505;50.882;5.350;2022-12-18T02:01:24;54.37;;;12.33;;
18752;SDS011;9505;50.882;5.350;2022-12-18T02:03:50;54.97;;;15.13;;
18752;SDS011;9505;50.882;5.350;2022-12-18T02:06:19;50.27;;;14.27;;
18752;SDS011;9505;50.882;5.350;2022-12-18T02:11:57;44.60;;;14.23;;
18752;SDS011;9505;50.882;5.350;2022-12-18T02:17:22;48.17;;;13.33;;
18752;SDS011;9505;50.882;5.350;2022-12-18T02:28:26;43.03;;;11.57;;
18752;SDS011;9505;50.882;5.350;2022-12-18T02:30:56;47.67;;;12.77;;
18752;SDS011;9505;50.882;5.350;2022-12-18T02:33:24;46.17;;;12.53;;
18752;SDS011;9505;50.882;5.350;2022-12-18T02:35:52;56.53;;;13.20;;
18752;SDS011;9505;50.882;5.350;2022-12-18T02:38:20;48.23;;;13.10;;
18752;SDS011;9505;50.882;5.350;2022-12-18T02:40:46;38.40;;;13.93;;
18752;SDS011;9505;50.882;5.350;2022-12-18T02:43:14;39.50;;;11.23;;
18752;SDS011;9505;50.882;5.350;2022-12-18T02:45:54;54.97;;;14.13;;
18752;SDS011;9505;50.882;5.350;2022-12-18T02:48:26;47.30;;;13.53;;
18752;SDS011;9505;50.882;5.350;2022-12-18T02:53:43;50.93;;;12.53;;
18752;SDS011;9505;50.882;5.350;2022-12-18T02:56:18;49.30;;;11.07;;
18752;SDS011;9505;50.882;5.350;2022-12-18T02:59:02;48.07;;;10.20;;
18752;SDS011;9505;50.882;5.350;2022-12-18T03:04:08;42.70;;;13.10;;
18752;SDS011;9505;50.882;5.350;2022-12-18T03:06:41;45.20;;;12.63;;
18752;SDS011;9505;50.882;5.350;2022-12-18T03:09:18;46.53;;;13.10;;
18752;SDS011;9505;50.882;5.350;2022-12-18T03:11:48;54.17;;;13.30;;
18752;SDS011;9505;50.882;5.350;2022-12-18T03:14:38;35.67;;;11.70;;
18752;SDS011;9505;50.882;5.350;2022-12-18T03:17:07;46.57;;;11.03;;
18752;SDS011;9505;50.882;5.350;2022-12-18T03:19:36;44.23;;;10.87;;
18752;SDS011;9505;50.882;5.350;2022-12-18T03:22:04;53.47;;;12.23;;
18752;SDS011;9505;50.882;5.350;2022-12-18T03:24:32;43.07;;;14.20;;
18752;SDS011;9505;50.882;5.350;2022-12-18T03:27:02;50.60;;;14.80;;
18752;SDS011;9505;50.882;5.350;2022-12-18T03:29:44;61.40;;;14.90;;
18752;SDS011;9505;50.882;5.350;2022-12-18T03:32:24;38.13;;;14.20;;
18752;SDS011;9505;50.882;5.350;2022-12-18T03:34:54;40.40;;;11.00;;
18752;SDS011;9505;50.882;5.350;2022-12-18T03:37:24;32.63;;;9.43;;
18752;SDS011;9505;50.882;5.350;2022-12-18T03:39:50;55.27;;;12.40;;
18752;SDS011;9505;50.882;5.350;2022-12-18T03:42:26;39.23;;;12.90;;
18752;SDS011;9505;50.882;5.350;2022-12-18T03:47:43;44.30;;;12.97;;
18752;SDS011;9505;50.882;5.350;2022-12-18T03:55:24;42.47;;;11.77;;
18752;SDS011;9505;50.882;5.350;2022-12-18T03:57:52;36.27;;;10.40;;
18752;SDS011;9505;50.882;5.350;2022-12-18T04:00:19;43.47;;;11.63;;
18752;SDS011;9505;50.882;5.350;2022-12-18T04:02:48;43.60;;;11.43;;
18752;SDS011;9505;50.882;5.350;2022-12-18T04:05:19;40.50;;;12.27;;
18752;SDS011;9505;50.882;5.350;2022-12-18T04:07:47;46.73;;;11.00;;
18752;SDS011;9505;50.882;5.350;2022-12-18T04:10:15;46.50;;;9.90;;
18752;SDS011;9505;50.882;5.350;2022-12-18T04:12:41;36.30;;;10.20;;
18752;SDS011;9505;50.882;5.350;2022-12-18T04:15:07;36.30;;;10.10;;
18752;SDS011;9505;50.882;5.350;2022-12-18T04:17:34;41.83;;;12.43;;
18752;SDS011;9505;50.882;5.350;2022-12-18T04:20:00;29.53;;;8.67;;
18752;SDS011;9505;50.882;5.350;2022-12-18T04:22:25;41.77;;;10.47;;
18752;SDS011;9505;50.882;5.350;2022-12-18T04:24:51;30.60;;;11.60;;
18752;SDS011;9505;50.882;5.350;2022-12-18T04:27:17;54.50;;;13.47;;
18752;SDS011;9505;50.882;5.350;2022-12-18T04:29:42;41.47;;;10.13;;
18752;SDS011;9505;50.882;5.350;2022-12-18T04:32:08;48.67;;;9.20;;
18752;SDS011;9505;50.882;5.350;2022-12-18T04:34:34;42.20;;;12.10;;
18752;SDS011;9505;50.882;5.350;2022-12-18T04:36:59;39.53;;;9.00;;
18752;SDS011;9505;50.882;5.350;2022-12-18T04:39:25;41.07;;;10.93;;
18752;SDS011;9505;50.882;5.350;2022-12-18T04:41:50;68.87;;;10.90;;
18752;SDS011;9505;50.882;5.350;2022-12-18T04:44:16;35.60;;;10.30;;
18752;SDS011;9505;50.882;5.350;2022-12-18T04:46:42;42.43;;;10.27;;
18752;SDS011;9505;50.882;5.350;2022-12-18T04:49:08;43.87;;;9.77;;
18752;SDS011;9505;50.882;5.350;2022-12-18T04:51:35;45.47;;;13.47;;
18752;SDS011;9505;50.882;5.350;2022-12-18T04:54:01;46.47;;;11.17;;
18752;SDS011;9505;50.882;5.350;2022-12-18T04:56:27;47.63;;;12.20;;
18752;SDS011;9505;50.882;5.350;2022-12-18T04:58:52;53.60;;;12.30;;
18752;SDS011;9505;50.882;5.350;2022-12-18T05:01:18;39.37;;;10.10;;
18752;SDS011;9505;50.882;5.350;2022-12-18T05:03:43;48.47;;;11.63;;
18752;SDS011;9505;50.882;5.350;2022-12-18T05:06:09;45.43;;;13.50;;
18752;SDS011;9505;50.882;5.350;2022-12-18T05:08:35;36.87;;;10.53;;
18752;SDS011;9505;50.882;5.350;2022-12-18T05:11:05;41.27;;;8.50;;
18752;SDS011;9505;50.882;5.350;2022-12-18T05:13:32;48.10;;;12.17;;
18752;SDS011;9505;50.882;5.350;2022-12-18T05:15:59;40.93;;;10.50;;
18752;SDS011;9505;50.882;5.350;2022-12-18T05:18:25;42.60;;;11.73;;
18752;SDS011;9505;50.882;5.350;2022-12-18T05:20:52;40.80;;;10.50;;
18752;SDS011;9505;50.882;5.350;2022-12-18T05:23:18;54.23;;;11.83;;
18752;SDS011;9505;50.882;5.350;2022-12-18T05:25:52;36.73;;;10.07;;
18752;SDS011;9505;50.882;5.350;2022-12-18T05:28:19;38.90;;;10.00;;
18752;SDS011;9505;50.882;5.350;2022-12-18T05:30:51;44.23;;;13.73;;
18752;SDS011;9505;50.882;5.350;2022-12-18T05:33:18;33.50;;;11.23;;
18752;SDS011;9505;50.882;5.350;2022-12-18T05:35:49;37.93;;;10.53;;
18752;SDS011;9505;50.882;5.350;2022-12-18T05:38:16;34.67;;;9.37;;
18752;SDS011;9505;50.882;5.350;2022-12-18T05:40:42;24.37;;;7.27;;
18752;SDS011;9505;50.882;5.350;2022-12-18T05:43:08;43.83;;;11.37;;
18752;SDS011;9505;50.882;5.350;2022-12-18T05:45:36;41.47;;;11.87;;
18752;SDS011;9505;50.882;5.350;2022-12-18T05:48:03;34.77;;;11.53;;
18752;SDS011;9505;50.882;5.350;2022-12-18T05:50:29;27.90;;;8.17;;
18752;SDS011;9505;50.882;5.350;2022-12-18T05:52:54;39.17;;;10.17;;
18752;SDS011;9505;50.882;5.350;2022-12-18T05:55:20;35.77;;;10.93;;
18752;SDS011;9505;50.882;5.350;2022-12-18T05:57:45;28.63;;;8.23;;
18752;SDS011;9505;50.882;5.350;2022-12-18T06:00:11;31.10;;;10.93;;
18752;SDS011;9505;50.882;5.350;2022-12-18T06:02:37;34.20;;;8.83;;
18752;SDS011;9505;50.882;5.350;2022-12-18T06:05:03;30.43;;;9.33;;
18752;SDS011;9505;50.882;5.350;2022-12-18T06:07:29;37.77;;;9.77;;
18752;SDS011;9505;50.882;5.350;2022-12-18T06:09:54;34.13;;;9.07;;
18752;SDS011;9505;50.882;5.350;2022-12-18T06:12:20;27.83;;;7.87;;
18752;SDS011;9505;50.882;5.350;2022-12-18T06:14:46;23.10;;;7.13;;
18752;SDS011;9505;50.882;5.350;2022-12-18T06:17:11;47.77;;;12.67;;
18752;SDS011;9505;50.882;5.350;2022-12-18T06:19:37;50.10;;;11.67;;
18752;SDS011;9505;50.882;5.350;2022-12-18T06:22:03;40.27;;;9.23;;
18752;SDS011;9505;50.882;5.350;2022-12-18T06:24:28;42.20;;;12.03;;
18752;SDS011;9505;50.882;5.350;2022-12-18T06:26:55;36.57;;;9.73;;
18752;SDS011;9505;50.882;5.350;2022-12-18T06:29:20;28.50;;;8.93;;
18752;SDS011;9505;50.882;5.350;2022-12-18T06:31:46;37.40;;;10.77;;
18752;SDS011;9505;50.882;5.350;2022-12-18T06:34:12;24.30;;;7.80;;
18752;SDS011;9505;50.882;5.350;2022-12-18T06:36:37;36.00;;;11.07;;
18752;SDS011;9505;50.882;5.350;2022-12-18T06:39:03;30.37;;;9.87;;
18752;SDS011;9505;50.882;5.350;2022-12-18T06:41:28;23.47;;;6.63;;
18752;SDS011;9505;50.882;5.350;2022-12-18T06:43:54;28.20;;;7.23;;
18752;SDS011;9505;50.882;5.350;2022-12-18T06:46:19;27.43;;;9.00;;
18752;SDS011;9505;50.882;5.350;2022-12-18T06:48:49;33.47;;;8.07;;
18752;SDS011;9505;50.882;5.350;2022-12-18T06:51:16;42.60;;;9.67;;
18752;SDS011;9505;50.882;5.350;2022-12-18T06:53:42;28.90;;;7.90;;
18752;SDS011;9505;50.882;5.350;2022-12-18T06:56:08;42.70;;;8.77;;
18752;SDS011;9505;50.882;5.350;2022-12-18T06:58:33;24.17;;;7.43;;
18752;SDS011;9505;50.882;5.350;2022-12-18T07:01:00;26.60;;;8.47;;
18752;SDS011;9505;50.882;5.350;2022-12-18T07:03:26;35.90;;;8.97;;
18752;SDS011;9505;50.882;5.350;2022-12-18T07:05:52;38.67;;;10.97;;
18752;SDS011;9505;50.882;5.350;2022-12-18T07:08:17;28.17;;;7.50;;
18752;SDS011;9505;50.882;5.350;2022-12-18T07:10:43;27.10;;;7.77;;
18752;SDS011;9505;50.882;5.350;2022-12-18T07:13:09;35.83;;;8.70;;
18752;SDS011;9505;50.882;5.350;2022-12-18T07:15:35;30.83;;;8.00;;
18752;SDS011;9505;50.882;5.350;2022-12-18T07:18:01;25.70;;;7.43;;
18752;SDS011;9505;50.882;5.350;2022-12-18T07:20:26;34.57;;;9.67;;
18752;SDS011;9505;50.882;5.350;2022-12-18T07:22:52;26.57;;;7.30;;
18752;SDS011;9505;50.882;5.350;2022-12-18T07:25:17;25.67;;;7.57;;
18752;SDS011;9505;50.882;5.350;2022-12-18T07:27:43;27.43;;;8.93;;
18752;SDS011;9505;50.882;5.350;2022-12-18T07:30:09;33.67;;;9.20;;
18752;SDS011;9505;50.882;5.350;2022-12-18T07:32:35;25.57;;;6.60;;
18752;SDS011;9505;50.882;5.350;2022-12-18T07:35:00;30.03;;;8.27;;
18752;SDS011;9505;50.882;5.350;2022-12-18T07:37:26;27.10;;;7.20;;
18752;SDS011;9505;50.882;5.350;2022-12-18T07:39:51;45.30;;;8.60;;
18752;SDS011;9505;50.882;5.350;2022-12-18T07:42:17;16.70;;;6.23;;
18752;SDS011;9505;50.882;5.350;2022-12-18T07:44:58;29.87;;;9.07;;
18752;SDS011;9505;50.882;5.350;2022-12-18T07:47:25;21.43;;;7.60;;
18752;SDS011;9505;50.882;5.350;2022-12-18T07:49:51;32.20;;;9.77;;
18752;SDS011;9505;50.882;5.350;2022-12-18T07:52:16;30.57;;;8.73;;
18752;SDS011;9505;50.882;5.350;2022-12-18T07:54:42;34.43;;;8.50;;
18752;SDS011;9505;50.882;5.350;2022-12-18T07:57:07;43.10;;;9.67;;
18752;SDS011;9505;50.882;5.350;2022-12-18T07:59:33;22.10;;;6.93;;
18752;SDS011;9505;50.882;5.350;2022-12-18T08:01:59;32.77;;;7.67;;
18752;SDS011;9505;50.882;5.350;2022-12-18T08:04:25;35.43;;;8.27;;
18752;SDS011;9505;50.882;5.350;2022-12-18T08:06:51;21.13;;;5.27;;
18752;SDS011;9505;50.882;5.350;2022-12-18T08:09:17;35.77;;;10.00;;
18752;SDS011;9505;50.882;5.350;2022-12-18T08:11:42;36.93;;;9.43;;
18752;SDS011;9505;50.882;5.350;2022-12-18T08:14:08;33.17;;;8.83;;
18752;SDS011;9505;50.882;5.350;2022-12-18T08:16:34;28.20;;;8.43;;
18752;SDS011;9505;50.882;5.350;2022-12-18T08:19:00;34.40;;;8.40;;
18752;SDS011;9505;50.882;5.350;2022-12-18T08:21:27;37.17;;;8.47;;
18752;SDS011;9505;50.882;5.350;2022-12-18T08:23:55;45.40;;;10.20;;
18752;SDS011;9505;50.882;5.350;2022-12-18T08:26:22;28.23;;;8.03;;
18752;SDS011;9505;50.882;5.350;2022-12-18T08:28:49;24.87;;;6.97;;
18752;SDS011;9505;50.882;5.350;2022-12-18T08:31:15;27.37;;;8.20;;
18752;SDS011;9505;50.882;5.350;2022-12-18T08:33:40;31.40;;;8.80;;
18752;SDS011;9505;50.882;5.350;2022-12-18T08:36:07;34.50;;;9.00;;
18752;SDS011;9505;50.882;5.350;2022-12-18T08:38:33;32.17;;;8.37;;
18752;SDS011;9505;50.882;5.350;2022-12-18T08:41:00;30.70;;;7.70;;
18752;SDS011;9505;50.882;5.350;2022-12-18T08:43:26;29.43;;;8.73;;
18752;SDS011;9505;50.882;5.350;2022-12-18T08:46:11;34.67;;;9.57;;
18752;SDS011;9505;50.882;5.350;2022-12-18T08:48:37;44.50;;;11.90;;
18752;SDS011;9505;50.882;5.350;2022-12-18T08:51:03;35.77;;;9.80;;
18752;SDS011;9505;50.882;5.350;2022-12-18T08:53:29;33.33;;;10.17;;
18752;SDS011;9505;50.882;5.350;2022-12-18T08:55:55;32.90;;;9.23;;
18752;SDS011;9505;50.882;5.350;2022-12-18T08:58:21;26.47;;;7.10;;
18752;SDS011;9505;50.882;5.350;2022-12-18T09:00:47;33.90;;;9.23;;
18752;SDS011;9505;50.882;5.350;2022-12-18T09:03:13;24.80;;;8.40;;
18752;SDS011;9505;50.882;5.350;2022-12-18T09:05:40;29.87;;;8.80;;
18752;SDS011;9505;50.882;5.350;2022-12-18T09:08:06;25.07;;;9.27;;
18752;SDS011;9505;50.882;5.350;2022-12-18T09:10:32;32.20;;;9.47;;
18752;SDS011;9505;50.882;5.350;2022-12-18T09:12:58;36.77;;;8.50;;
18752;SDS011;9505;50.882;5.350;2022-12-18T09:15:23;24.53;;;9.07;;
18752;SDS011;9505;50.882;5.350;2022-12-18T09:17:49;31.30;;;8.90;;
18752;SDS011;9505;50.882;5.350;2022-12-18T09:20:15;26.80;;;7.40;;
18752;SDS011;9505;50.882;5.350;2022-12-18T09:22:41;25.80;;;7.90;;
18752;SDS011;9505;50.882;5.350;2022-12-18T09:25:07;33.03;;;9.00;;
18752;SDS011;9505;50.882;5.350;2022-12-18T09:27:33;38.80;;;11.00;;
18752;SDS011;9505;50.882;5.350;2022-12-18T09:29:59;36.37;;;9.57;;
18752;SDS011;9505;50.882;5.350;2022-12-18T09:32:25;35.83;;;10.07;;
18752;SDS011;9505;50.882;5.350;2022-12-18T09:34:50;32.70;;;9.20;;
18752;SDS011;9505;50.882;5.350;2022-12-18T09:37:16;37.30;;;9.93;;
18752;SDS011;9505;50.882;5.350;2022-12-18T09:39:42;39.97;;;10.63;;
18752;SDS011;9505;50.882;5.350;2022-12-18T09:42:09;37.03;;;9.60;;
18752;SDS011;9505;50.882;5.350;2022-12-18T09:44:51;29.57;;;9.60;;
18752;SDS011;9505;50.882;5.350;2022-12-18T09:47:28;25.63;;;9.33;;
18752;SDS011;9505;50.882;5.350;2022-12-18T09:49:59;37.90;;;10.70;;
18752;SDS011;9505;50.882;5.350;2022-12-18T09:52:39;39.60;;;11.50;;
18752;SDS011;9505;50.882;5.350;2022-12-18T09:55:16;38.40;;;9.77;;
18752;SDS011;9505;50.882;5.350;2022-12-18T09:57:49;35.63;;;11.20;;
18752;SDS011;9505;50.882;5.350;2022-12-18T10:00:21;34.73;;;10.17;;
18752;SDS011;9505;50.882;5.350;2022-12-18T10:02:48;43.03;;;11.00;;
18752;SDS011;9505;50.882;5.350;2022-12-18T10:05:17;28.97;;;9.80;;
18752;SDS011;9505;50.882;5.350;2022-12-18T10:07:55;38.40;;;11.57;;
18752;SDS011;9505;50.882;5.350;2022-12-18T10:10:46;36.23;;;10.93;;
18752;SDS011;9505;50.882;5.350;2022-12-18T10:16:15;42.53;;;11.40;;
18752;SDS011;9505;50.882;5.350;2022-12-18T10:19:22;31.97;;;9.80;;
18752;SDS011;9505;50.882;5.350;2022-12-18T10:21:40;38.17;;;10.57;;
18752;SDS011;9505;50.882;5.350;2022-12-18T10:26:42;34.27;;;10.40;;
18752;SDS011;9505;50.882;5.350;2022-12-18T10:29:12;38.20;;;11.63;;
18752;SDS011;9505;50.882;5.350;2022-12-18T10:31:38;40.90;;;10.67;;
18752;SDS011;9505;50.882;5.350;2022-12-18T10:34:04;35.50;;;11.70;;
18752;SDS011;9505;50.882;5.350;2022-12-18T10:36:38;32.17;;;9.53;;
18752;SDS011;9505;50.882;5.350;2022-12-18T10:39:14;34.23;;;11.27;;
18752;SDS011;9505;50.882;5.350;2022-12-18T10:41:45;41.20;;;11.33;;
18752;SDS011;9505;50.882;5.350;2022-12-18T10:44:21;35.67;;;10.97;;
18752;SDS011;9505;50.882;5.350;2022-12-18T10:46:55;40.90;;;11.43;;
18752;SDS011;9505;50.882;5.350;2022-12-18T10:49:29;41.20;;;12.13;;
18752;SDS011;9505;50.882;5.350;2022-12-18T10:52:18;34.47;;;10.80;;
18752;SDS011;9505;50.882;5.350;2022-12-18T10:54:58;31.42;;;10.48;;
18752;SDS011;9505;50.882;5.350;2022-12-18T10:57:30;43.47;;;12.20;;
18752;SDS011;9505;50.882;5.350;2022-12-18T10:59:57;37.67;;;11.57;;
18752;SDS011;9505;50.882;5.350;2022-12-18T11:04:59;41.10;;;11.80;;
18752;SDS011;9505;50.882;5.350;2022-12-18T11:07:26;33.77;;;10.20;;
18752;SDS011;9505;50.882;5.350;2022-12-18T11:10:15;32.67;;;10.53;;
18752;SDS011;9505;50.882;5.350;2022-12-18T11:12:42;40.45;;;11.25;;
18752;SDS011;9505;50.882;5.350;2022-12-18T11:15:15;38.60;;;12.40;;
18752;SDS011;9505;50.882;5.350;2022-12-18T11:17:44;36.33;;;11.40;;
18752;SDS011;9505;50.882;5.350;2022-12-18T11:20:26;39.45;;;11.00;;
18752;SDS011;9505;50.882;5.350;2022-12-18T11:22:58;31.63;;;10.60;;
18752;SDS011;9505;50.882;5.350;2022-12-18T11:25:25;35.58;;;10.68;;
18752;SDS011;9505;50.882;5.350;2022-12-18T11:27:59;39.72;;;12.30;;
18752;SDS011;9505;50.882;5.350;2022-12-18T11:30:31;33.30;;;11.88;;
18752;SDS011;9505;50.882;5.350;2022-12-18T11:33:00;37.30;;;11.20;;
18752;SDS011;9505;50.882;5.350;2022-12-18T11:35:51;37.05;;;12.00;;
18752;SDS011;9505;50.882;5.350;2022-12-18T11:38:27;34.42;;;11.23;;
18752;SDS011;9505;50.882;5.350;2022-12-18T11:41:06;44.58;;;13.05;;
18752;SDS011;9505;50.882;5.350;2022-12-18T11:43:38;38.28;;;11.90;;
18752;SDS011;9505;50.882;5.350;2022-12-18T11:46:10;39.20;;;12.15;;
18752;SDS011;9505;50.882;5.350;2022-12-18T11:48:48;48.28;;;13.15;;
18752;SDS011;9505;50.882;5.350;2022-12-18T11:51:22;41.20;;;12.40;;
18752;SDS011;9505;50.882;5.350;2022-12-18T11:53:53;34.20;;;11.63;;
18752;SDS011;9505;50.882;5.350;2022-12-18T11:56:26;38.83;;;12.18;;
18752;SDS011;9505;50.882;5.350;2022-12-18T12:01:38;34.90;;;12.07;;
18752;SDS011;9505;50.882;5.350;2022-12-18T12:23:23;41.53;;;12.68;;
18752;SDS011;9505;50.882;5.350;2022-12-18T12:26:06;44.47;;;13.82;;
18752;SDS011;9505;50.882;5.350;2022-12-18T12:28:58;46.65;;;12.82;;
18752;SDS011;9505;50.882;5.350;2022-12-18T12:40:26;44.92;;;12.32;;
18752;SDS011;9505;50.882;5.350;2022-12-18T12:42:58;38.13;;;12.80;;
18752;SDS011;9505;50.882;5.350;2022-12-18T12:48:11;36.17;;;13.30;;
18752;SDS011;9505;50.882;5.350;2022-12-18T12:50:52;34.05;;;13.02;;
18752;SDS011;9505;50.882;5.350;2022-12-18T12:53:30;47.67;;;15.63;;
18752;SDS011;9505;50.882;5.350;2022-12-18T12:56:01;53.88;;;14.88;;
18752;SDS011;9505;50.882;5.350;2022-12-18T13:06:37;55.65;;;15.90;;
18752;SDS011;9505;50.882;5.350;2022-12-18T13:09:19;42.35;;;12.93;;
18752;SDS011;9505;50.882;5.350;2022-12-18T13:11:45;46.63;;;14.13;;
18752;SDS011;9505;50.882;5.350;2022-12-18T13:14:31;39.88;;;12.75;;
18752;SDS011;9505;50.882;5.350;2022-12-18T13:19:55;41.75;;;12.55;;
18752;SDS011;9505;50.882;5.350;2022-12-18T13:22:35;45.08;;;13.90;;
18752;SDS011;9505;50.882;5.350;2022-12-18T13:25:49;49.65;;;13.43;;
18752;SDS011;9505;50.882;5.350;2022-12-18T13:28:06;42.05;;;12.68;;
18752;SDS011;9505;50.882;5.350;2022-12-18T13:35:39;41.22;;;13.40;;
18752;SDS011;9505;50.882;5.350;2022-12-18T13:38:20;37.60;;;12.57;;
18752;SDS011;9505;50.882;5.350;2022-12-18T13:45:45;40.67;;;13.00;;
18752;SDS011;9505;50.882;5.350;2022-12-18T13:48:14;41.20;;;12.02;;
18752;SDS011;9505;50.882;5.350;2022-12-18T13:50:42;42.65;;;12.73;;
18752;SDS011;9505;50.882;5.350;2022-12-18T13:53:13;38.72;;;11.07;;
18752;SDS011;9505;50.882;5.350;2022-12-18T13:55:46;42.38;;;13.50;;
18752;SDS011;9505;50.882;5.350;2022-12-18T13:58:12;49.83;;;13.82;;
18752;SDS011;9505;50.882;5.350;2022-12-18T14:00:41;42.10;;;11.60;;
18752;SDS011;9505;50.882;5.350;2022-12-18T14:03:17;50.45;;;13.13;;
18752;SDS011;9505;50.882;5.350;2022-12-18T14:05:46;40.40;;;11.10;;
18752;SDS011;9505;50.882;5.350;2022-12-18T14:08:19;34.28;;;10.93;;
18752;SDS011;9505;50.882;5.350;2022-12-18T14:10:46;29.63;;;10.00;;
18752;SDS011;9505;50.882;5.350;2022-12-18T14:13:21;39.05;;;11.18;;
18752;SDS011;9505;50.882;5.350;2022-12-18T14:15:48;35.13;;;11.63;;
18752;SDS011;9505;50.882;5.350;2022-12-18T14:18:25;40.63;;;13.10;;
18752;SDS011;9505;50.882;5.350;2022-12-18T14:20:58;38.80;;;12.40;;
18752;SDS011;9505;50.882;5.350;2022-12-18T14:23:27;40.92;;;11.73;;
18752;SDS011;9505;50.882;5.350;2022-12-18T14:26:01;37.70;;;11.27;;
18752;SDS011;9505;50.882;5.350;2022-12-18T14:28:44;43.05;;;13.15;;
18752;SDS011;9505;50.882;5.350;2022-12-18T14:31:16;37.92;;;13.27;;
18752;SDS011;9505;50.882;5.350;2022-12-18T14:33:46;49.88;;;13.25;;
18752;SDS011;9505;50.882;5.350;2022-12-18T14:36:15;40.03;;;12.10;;
18752;SDS011;9505;50.882;5.350;2022-12-18T14:38:42;45.83;;;13.13;;
18752;SDS011;9505;50.882;5.350;2022-12-18T14:41:11;39.20;;;12.63;;
18752;SDS011;9505;50.882;5.350;2022-12-18T14:43:39;42.85;;;11.32;;
18752;SDS011;9505;50.882;5.350;2022-12-18T14:46:27;34.70;;;10.80;;
18752;SDS011;9505;50.882;5.350;2022-12-18T14:49:00;35.60;;;11.45;;
18752;SDS011;9505;50.882;5.350;2022-12-18T14:51:30;39.63;;;12.13;;
18752;SDS011;9505;50.882;5.350;2022-12-18T14:54:02;36.00;;;10.52;;
18752;SDS011;9505;50.882;5.350;2022-12-18T14:56:36;49.65;;;12.38;;
18752;SDS011;9505;50.882;5.350;2022-12-18T14:59:20;44.20;;;12.98;;
18752;SDS011;9505;50.882;5.350;2022-12-18T15:04:44;29.85;;;10.23;;
18752;SDS011;9505;50.882;5.350;2022-12-18T15:09:36;36.45;;;12.15;;
18752;SDS011;9505;50.882;5.350;2022-12-18T15:12:02;44.20;;;12.18;;
18752;SDS011;9505;50.882;5.350;2022-12-18T15:14:39;47.88;;;14.23;;
18752;SDS011;9505;50.882;5.350;2022-12-18T15:17:16;42.40;;;12.20;;
18752;SDS011;9505;50.882;5.350;2022-12-18T15:19:44;42.80;;;11.02;;
18752;SDS011;9505;50.882;5.350;2022-12-18T15:22:20;37.78;;;11.82;;
18752;SDS011;9505;50.882;5.350;2022-12-18T15:24:51;39.13;;;11.10;;
18752;SDS011;9505;50.882;5.350;2022-12-18T15:27:20;33.33;;;10.68;;
18752;SDS011;9505;50.882;5.350;2022-12-18T15:30:01;47.38;;;13.20;;
18752;SDS011;9505;50.882;5.350;2022-12-18T15:32:30;34.53;;;11.25;;
18752;SDS011;9505;50.882;5.350;2022-12-18T15:37:36;43.22;;;11.35;;
18752;SDS011;9505;50.882;5.350;2022-12-18T15:40:05;43.55;;;13.70;;
18752;SDS011;9505;50.882;5.350;2022-12-18T15:42:31;42.75;;;12.52;;
18752;SDS011;9505;50.882;5.350;2022-12-18T15:45:15;42.53;;;14.20;;
18752;SDS011;9505;50.882;5.350;2022-12-18T15:47:41;47.88;;;14.48;;
18752;SDS011;9505;50.882;5.350;2022-12-18T15:50:07;42.55;;;12.80;;
18752;SDS011;9505;50.882;5.350;2022-12-18T15:52:36;46.15;;;13.63;;
18752;SDS011;9505;50.882;5.350;2022-12-18T15:55:10;52.05;;;13.75;;
18752;SDS011;9505;50.882;5.350;2022-12-18T15:57:56;47.30;;;12.88;;
18752;SDS011;9505;50.882;5.350;2022-12-18T16:00:22;40.47;;;12.32;;
18752;SDS011;9505;50.882;5.350;2022-12-18T16:02:47;38.42;;;11.73;;
18752;SDS011;9505;50.882;5.350;2022-12-18T16:05:13;41.38;;;13.25;;
18752;SDS011;9505;50.882;5.350;2022-12-18T16:07:41;49.10;;;12.38;;
18752;SDS011;9505;50.882;5.350;2022-12-18T16:10:07;40.00;;;11.50;;
18752;SDS011;9505;50.882;5.350;2022-12-18T16:12:33;42.50;;;11.48;;
18752;SDS011;9505;50.882;5.350;2022-12-18T16:14:59;31.23;;;10.63;;
18752;SDS011;9505;50.882;5.350;2022-12-18T16:17:24;38.78;;;10.52;;
18752;SDS011;9505;50.882;5.350;2022-12-18T16:19:50;43.50;;;11.45;;
18752;SDS011;9505;50.882;5.350;2022-12-18T16:22:18;40.65;;;10.77;;
18752;SDS011;9505;50.882;5.350;2022-12-18T16:24:48;45.00;;;12.45;;
18752;SDS011;9505;50.882;5.350;2022-12-18T16:27:14;45.90;;;13.60;;
18752;SDS011;9505;50.882;5.350;2022-12-18T16:29:40;46.45;;;13.80;;
18752;SDS011;9505;50.882;5.350;2022-12-18T16:32:06;44.25;;;12.43;;
18752;SDS011;9505;50.882;5.350;2022-12-18T16:34:34;44.05;;;12.65;;